createdAt,value
2022-08-25T00:01:10.526Z,11.25
2022-08-25T00:03:55.197Z,9.85
2022-08-25T00:06:41.078Z,7.88
2022-08-25T00:09:26.614Z,9.02
2022-08-25T00:12:09.740Z,8.30
2022-08-25T00:14:53.140Z,8.98
2022-08-25T00:17:37.611Z,11.25
2022-08-25T00:20:21.245Z,8.23
2022-08-25T00:23:04.337Z,9.88
2022-08-25T00:25:50.904Z,10.35
2022-08-25T00:28:34.294Z,8.57
2022-08-25T00:31:21.036Z,8.57
2022-08-25T00:34:07.503Z,8.38
2022-08-25T00:36:51.775Z,8.25
2022-08-25T00:39:34.918Z,8.98
2022-08-25T00:42:20.731Z,6.93
2022-08-25T00:45:03.947Z,7.63
2022-08-25T00:47:47.007Z,9.90
2022-08-25T00:50:34.878Z,9.70
2022-08-25T00:53:18.943Z,10.90
2022-08-25T00:56:02.871Z,11.10
2022-08-25T00:58:45.923Z,12.60
2022-08-25T01:01:30.532Z,9.35
2022-08-25T01:04:13.697Z,10.63
2022-08-25T01:06:59.927Z,12.40
2022-08-25T01:09:45.158Z,11.73
2022-08-25T01:12:28.493Z,11.50
2022-08-25T01:15:14.383Z,12.25
2022-08-25T01:17:59.768Z,15.10
2022-08-25T01:20:43.290Z,10.73
2022-08-25T01:23:27.992Z,10.18
2022-08-25T01:29:12.996Z,10.02
2022-08-25T01:31:58.434Z,10.02
2022-08-25T01:34:43.801Z,7.93
2022-08-25T01:37:27.130Z,9.73
2022-08-25T01:40:12.979Z,10.93
2022-08-25T01:43:07.524Z,10.52
2022-08-25T01:45:50.788Z,10.88
2022-08-25T01:48:33.943Z,9.93
2022-08-25T01:51:20.260Z,11.68
2022-08-25T01:54:03.288Z,11.23
2022-08-25T01:56:48.013Z,12.73
2022-08-25T02:02:14.002Z,11.20
2022-08-25T02:04:57.062Z,12.77
2022-08-25T02:07:40.111Z,12.15
2022-08-25T02:10:24.081Z,11.00
2022-08-25T02:13:09.604Z,11.60
2022-08-25T02:15:56.444Z,12.93
2022-08-25T02:18:39.446Z,12.98
2022-08-25T02:21:22.883Z,10.75
2022-08-25T02:24:06.979Z,10.10
2022-08-25T02:26:50.543Z,8.77
2022-08-25T02:29:35.205Z,10.57
2022-08-25T02:32:18.251Z,11.68
2022-08-25T02:35:01.384Z,12.02
2022-08-25T02:37:44.910Z,12.20
2022-08-25T02:40:28.069Z,11.07
2022-08-25T02:43:11.653Z,10.88
2022-08-25T02:45:56.652Z,11.77
2022-08-25T02:48:40.854Z,9.93
2022-08-25T02:51:26.233Z,10.15
2022-08-25T02:54:09.443Z,12.25
2022-08-25T02:56:52.494Z,14.85
2022-08-25T02:59:36.138Z,12.52
2022-08-25T03:02:20.549Z,14.45
2022-08-25T03:05:03.605Z,12.48
2022-08-25T03:07:46.683Z,10.65
2022-08-25T03:10:30.638Z,10.40
2022-08-25T03:13:13.713Z,11.57
2022-08-25T03:15:56.695Z,9.07
2022-08-25T03:18:42.946Z,8.25
2022-08-25T03:21:26.330Z,7.70
2022-08-25T03:24:09.631Z,10.30
2022-08-25T03:26:55.947Z,9.25
2022-08-25T03:29:39.417Z,7.90
2022-08-25T03:32:23.895Z,6.90
2022-08-25T03:35:09.250Z,7.15
2022-08-25T03:37:56.116Z,7.15
2022-08-25T03:40:39.313Z,9.43
2022-08-25T03:43:23.660Z,9.40
2022-08-25T03:46:07.101Z,9.43
2022-08-25T03:48:51.030Z,9.55
2022-08-25T03:51:37.605Z,9.97
2022-08-25T03:54:24.138Z,9.85
2022-08-25T03:57:07.186Z,10.38
2022-08-25T03:59:50.220Z,9.35
2022-08-25T04:02:33.752Z,10.18
2022-08-25T04:05:17.284Z,12.27
2022-08-25T04:08:02.535Z,10.68
2022-08-25T04:10:45.719Z,9.48
2022-08-25T04:13:29.223Z,9.40
2022-08-25T04:16:14.339Z,9.57
2022-08-25T04:18:58.689Z,9.57
2022-08-25T04:21:42.447Z,8.90
2022-08-25T04:24:26.830Z,7.53
2022-08-25T04:27:09.995Z,6.38
2022-08-25T04:29:53.146Z,7.75
2022-08-25T04:32:37.307Z,9.27
2022-08-25T04:35:21.349Z,7.18
2022-08-25T04:38:04.565Z,8.23
2022-08-25T04:40:57.040Z,7.18
2022-08-25T04:43:42.022Z,11.30
2022-08-25T04:46:28.056Z,9.13
2022-08-25T04:49:11.229Z,7.25
2022-08-25T04:51:54.334Z,8.32
2022-08-25T04:54:37.573Z,8.23
2022-08-25T04:57:22.048Z,7.25
2022-08-25T05:00:06.306Z,10.30
2022-08-25T05:02:49.357Z,9.85
2022-08-25T05:05:33.857Z,8.50
2022-08-25T05:08:16.899Z,20.63
2022-08-25T05:11:00.481Z,12.13
2022-08-25T05:13:51.369Z,12.15
2022-08-25T05:16:34.917Z,9.30
2022-08-25T05:19:18.333Z,10.77
2022-08-25T05:22:01.392Z,10.75
2022-08-25T05:24:44.674Z,11.32
2022-08-25T05:27:27.674Z,12.70
2022-08-25T05:30:13.414Z,14.93
2022-08-25T05:32:57.299Z,13.50
2022-08-25T05:35:40.964Z,13.48
2022-08-25T05:38:24.525Z,17.75
2022-08-25T05:41:10.289Z,12.90
2022-08-25T05:43:53.375Z,14.52
2022-08-25T05:46:37.790Z,12.65
2022-08-25T05:49:21.051Z,11.75
2022-08-25T05:52:04.514Z,11.20
2022-08-25T05:54:48.222Z,19.10
2022-08-25T05:57:31.314Z,13.90
2022-08-25T06:00:15.003Z,16.50
2022-08-25T06:02:58.459Z,15.95
2022-08-25T06:05:41.885Z,11.98
2022-08-25T06:08:26.859Z,9.98
2022-08-25T06:11:09.897Z,8.48
2022-08-25T06:13:52.924Z,12.45
2022-08-25T06:16:36.317Z,11.15
2022-08-25T06:19:21.244Z,11.23
2022-08-25T06:22:04.510Z,8.52
2022-08-25T06:24:47.557Z,10.18
2022-08-25T06:27:30.643Z,10.38
2022-08-25T06:30:22.465Z,10.52
2022-08-25T06:33:07.690Z,10.68
2022-08-25T06:35:55.192Z,11.20
2022-08-25T06:38:38.331Z,9.85
2022-08-25T06:41:21.356Z,10.38
2022-08-25T06:44:05.536Z,9.93
2022-08-25T06:46:48.788Z,9.98
2022-08-25T06:49:35.596Z,9.85
2022-08-25T06:52:20.932Z,8.38
2022-08-25T06:55:06.789Z,10.25
2022-08-25T06:57:49.877Z,10.38
2022-08-25T07:00:33.551Z,10.07
2022-08-25T07:03:16.657Z,11.77
2022-08-25T07:05:59.718Z,13.85
2022-08-25T07:08:44.227Z,17.88
2022-08-25T07:11:27.550Z,13.48
2022-08-25T07:14:13.008Z,16.25
2022-08-25T07:16:56.083Z,18.67
2022-08-25T07:19:39.176Z,27.35
2022-08-25T07:22:24.041Z,25.55
2022-08-25T07:25:11.087Z,21.85
2022-08-25T07:27:58.574Z,16.95
2022-08-25T07:30:42.361Z,15.38
2022-08-25T07:33:25.402Z,21.25
2022-08-25T07:36:08.613Z,21.27
2022-08-25T07:38:52.656Z,21.00
2022-08-25T07:41:41.011Z,14.88
2022-08-25T07:44:25.291Z,21.13
2022-08-25T07:47:11.265Z,22.67
2022-08-25T07:49:54.828Z,17.60
2022-08-25T07:52:38.789Z,15.30
2022-08-25T07:55:21.969Z,19.52
2022-08-25T07:58:08.210Z,13.63
2022-08-25T08:00:53.226Z,26.38
2022-08-25T08:03:50.087Z,13.27
2022-08-25T08:06:34.528Z,19.27
2022-08-25T08:09:18.518Z,22.08
2022-08-25T08:12:01.725Z,20.13
2022-08-25T08:14:46.501Z,26.88
2022-08-25T08:20:14.014Z,25.63
2022-08-25T08:22:57.323Z,21.13
2022-08-25T08:25:40.373Z,23.75
2022-08-25T08:28:27.800Z,21.88
2022-08-25T08:31:12.628Z,23.60
2022-08-25T08:33:57.319Z,31.02
2022-08-25T08:36:40.339Z,30.63
2022-08-25T08:39:23.411Z,28.10
2022-08-25T08:42:28.566Z,25.48
2022-08-25T08:45:28.334Z,21.30
2022-08-25T08:48:41.802Z,22.77
2022-08-25T08:51:32.812Z,29.73
2022-08-25T08:54:23.043Z,26.30
2022-08-25T08:57:12.802Z,21.80
2022-08-25T09:00:00.895Z,24.83
2022-08-25T09:02:51.943Z,20.98
2022-08-25T09:05:47.366Z,23.55
2022-08-25T09:08:30.468Z,19.60
2022-08-25T09:11:23.461Z,18.98
2022-08-25T09:14:30.172Z,20.05
2022-08-25T09:17:22.786Z,32.25
2022-08-25T09:20:19.921Z,19.65
2022-08-25T09:23:20.191Z,17.65
2022-08-25T09:26:20.819Z,17.90
2022-08-25T09:29:16.403Z,18.77
2022-08-25T09:32:01.686Z,16.58
2022-08-25T09:34:49.049Z,16.25
2022-08-25T09:37:32.086Z,19.02
2022-08-25T09:40:17.034Z,20.17
2022-08-25T09:43:03.085Z,26.05
2022-08-25T09:45:49.156Z,19.40
2022-08-25T09:48:40.652Z,18.90
2022-08-25T09:51:27.326Z,11.45
2022-08-25T09:54:20.927Z,15.20
2022-08-25T09:57:10.285Z,19.00
2022-08-25T09:59:57.584Z,14.48
2022-08-25T10:02:42.739Z,23.95
2022-08-25T10:05:28.174Z,20.88
2022-08-25T10:08:16.311Z,19.35
2022-08-25T10:11:08.801Z,21.70
2022-08-25T10:14:03.302Z,18.35
2022-08-25T10:16:47.465Z,13.90
2022-08-25T10:19:31.143Z,17.55
2022-08-25T10:22:25.854Z,17.65
2022-08-25T10:28:11.020Z,23.27
2022-08-25T10:31:03.947Z,17.35
2022-08-25T10:33:58.931Z,14.65
2022-08-25T10:36:56.043Z,16.45
2022-08-25T10:39:43.380Z,18.05
2022-08-25T10:42:35.123Z,13.45
2022-08-25T10:45:40.385Z,15.63
2022-08-25T10:51:42.039Z,16.90
2022-08-25T10:54:40.599Z,21.08
2022-08-25T10:57:33.466Z,14.73
2022-08-25T11:00:22.446Z,14.35
2022-08-25T11:03:27.738Z,13.98
2022-08-25T11:06:22.583Z,13.88
2022-08-25T11:09:12.285Z,24.25
2022-08-25T11:12:00.623Z,16.90
2022-08-25T11:14:49.646Z,18.67
2022-08-25T11:17:43.612Z,13.93
2022-08-25T11:20:33.570Z,14.48
2022-08-25T11:23:23.991Z,12.50
2022-08-25T11:26:12.317Z,16.80
2022-08-25T11:29:02.651Z,13.13
2022-08-25T11:31:54.718Z,19.25
2022-08-25T11:34:43.464Z,20.85
2022-08-25T11:37:30.874Z,15.48
2022-08-25T11:40:39.265Z,21.58
2022-08-25T11:43:38.107Z,16.30
2022-08-25T11:46:36.693Z,25.83
2022-08-25T11:49:39.897Z,15.82
2022-08-25T11:52:49.200Z,21.23
2022-08-25T11:55:50.047Z,20.98
2022-08-25T11:58:42.448Z,21.95
2022-08-25T12:02:05.297Z,18.88
2022-08-25T12:04:48.957Z,19.33
2022-08-25T12:08:20.516Z,22.42
2022-08-25T12:11:11.118Z,26.42
2022-08-25T12:14:16.122Z,18.50
2022-08-25T12:17:12.198Z,17.60
2022-08-25T12:19:59.592Z,14.75
2022-08-25T12:22:56.358Z,20.17
2022-08-25T12:25:54.886Z,18.55
2022-08-25T12:28:48.920Z,23.38
2022-08-25T12:31:53.749Z,19.43
2022-08-25T12:35:04.820Z,16.65
2022-08-25T12:38:01.474Z,19.10
2022-08-25T12:40:59.375Z,17.77
2022-08-25T12:43:44.768Z,17.70
2022-08-25T12:46:39.519Z,16.13
2022-08-25T12:52:19.697Z,21.30
2022-08-25T12:55:06.420Z,21.63
2022-08-25T12:57:57.823Z,15.07
2022-08-25T13:01:00.929Z,12.20
2022-08-25T13:04:09.952Z,20.85
2022-08-25T13:07:15.509Z,18.45
2022-08-25T13:10:23.773Z,16.02
2022-08-25T13:13:14.782Z,17.95
2022-08-25T13:16:04.778Z,17.45
2022-08-25T13:18:51.375Z,14.77
2022-08-25T13:21:38.553Z,18.60
2022-08-25T13:24:27.815Z,16.60
2022-08-25T13:27:22.523Z,21.55
2022-08-25T13:30:08.288Z,14.15
2022-08-25T13:32:51.288Z,17.08
2022-08-25T13:35:34.444Z,18.92
2022-08-25T13:38:18.952Z,15.10
2022-08-25T13:41:08.274Z,16.60
2022-08-25T13:43:53.321Z,15.38
2022-08-25T13:46:36.360Z,10.83
2022-08-25T13:49:27.476Z,25.88
2022-08-25T13:52:29.295Z,17.75
2022-08-25T13:55:12.446Z,16.30
2022-08-25T13:57:58.625Z,15.13
2022-08-25T14:00:47.248Z,10.32
2022-08-25T14:03:33.460Z,13.88
2022-08-25T14:06:23.631Z,14.77
2022-08-25T14:09:16.185Z,10.93
2022-08-25T14:11:59.641Z,16.33
2022-08-25T14:14:44.069Z,12.15
2022-08-25T14:17:39.050Z,13.05
2022-08-25T14:20:29.055Z,10.27
2022-08-25T14:23:18.927Z,13.02
2022-08-25T14:26:02.234Z,10.63
2022-08-25T14:28:46.350Z,13.60
2022-08-25T14:31:33.563Z,10.90
2022-08-25T14:34:20.725Z,10.27
2022-08-25T14:37:07.304Z,9.25
2022-08-25T14:39:52.347Z,7.72
2022-08-25T14:42:36.491Z,12.52
2022-08-25T14:45:20.499Z,9.35
2022-08-25T14:48:10.720Z,9.18
2022-08-25T14:50:54.966Z,8.85
2022-08-25T14:53:38.037Z,8.75
2022-08-25T14:59:05.706Z,14.13
2022-08-25T15:01:50.104Z,14.23
2022-08-25T15:04:36.600Z,9.45
2022-08-25T15:07:39.656Z,9.60
2022-08-25T15:10:23.027Z,10.02
2022-08-25T15:13:08.877Z,10.00
2022-08-25T15:15:53.223Z,12.68
2022-08-25T15:18:37.056Z,7.97
2022-08-25T15:21:21.539Z,8.43
2022-08-25T15:24:05.397Z,5.75
2022-08-25T15:29:40.898Z,11.88
2022-08-25T15:32:24.969Z,13.02
2022-08-25T15:35:11.713Z,12.35
2022-08-25T15:37:59.978Z,6.50
2022-08-25T15:40:42.973Z,8.15
2022-08-25T15:43:26.168Z,9.63
2022-08-25T15:46:09.553Z,9.05
2022-08-25T15:48:53.398Z,9.27
2022-08-25T15:51:36.794Z,10.75
2022-08-25T15:54:21.737Z,6.75
2022-08-25T15:57:08.805Z,9.63
2022-08-25T15:59:53.280Z,7.38
2022-08-25T16:02:36.336Z,7.47
2022-08-25T16:05:25.654Z,8.98
2022-08-25T16:08:19.372Z,8.40
2022-08-25T16:11:04.955Z,9.63
2022-08-25T16:13:51.521Z,8.52
2022-08-25T16:16:35.036Z,7.03
2022-08-25T16:19:18.260Z,7.85
2022-08-25T16:22:02.166Z,8.23
2022-08-25T16:24:45.780Z,9.13
2022-08-25T16:27:38.581Z,7.00
2022-08-25T16:30:22.643Z,10.27
2022-08-25T16:33:06.386Z,8.02
2022-08-25T16:35:49.614Z,9.43
2022-08-25T16:38:32.776Z,7.10
2022-08-25T16:41:18.387Z,7.45
2022-08-25T16:44:04.432Z,9.30
2022-08-25T16:46:47.676Z,9.75
2022-08-25T16:49:31.055Z,23.30
2022-08-25T16:52:32.101Z,9.98
2022-08-25T16:55:16.006Z,8.45
2022-08-25T16:58:01.012Z,11.13
2022-08-25T17:00:49.895Z,11.23
2022-08-25T17:03:34.523Z,9.52
2022-08-25T17:09:00.654Z,10.40
2022-08-25T17:11:46.913Z,11.35
2022-08-25T17:14:30.033Z,10.82
2022-08-25T17:17:15.278Z,10.07
2022-08-25T17:19:58.342Z,9.23
2022-08-25T17:22:43.857Z,11.10
2022-08-25T17:25:27.584Z,9.57
2022-08-25T17:28:12.018Z,10.43
2022-08-25T17:30:55.976Z,11.63
2022-08-25T17:33:40.889Z,8.05
2022-08-25T17:36:27.005Z,16.10
2022-08-25T17:39:12.942Z,11.07
2022-08-25T17:41:57.320Z,11.10
2022-08-25T17:44:40.481Z,11.50
2022-08-25T17:47:23.543Z,11.15
2022-08-25T17:50:08.922Z,12.10
2022-08-25T17:52:52.660Z,9.75
2022-08-25T17:55:35.944Z,14.35
2022-08-25T17:58:19.862Z,11.80
2022-08-25T18:01:04.262Z,9.55
2022-08-25T18:06:32.718Z,10.80
2022-08-25T18:09:16.005Z,12.18
2022-08-25T18:11:59.130Z,12.15
2022-08-25T18:14:42.201Z,13.38
2022-08-25T18:17:29.703Z,12.60
2022-08-25T18:20:15.595Z,11.48
2022-08-25T18:23:02.138Z,10.02
2022-08-25T18:25:45.446Z,12.35
2022-08-25T18:28:30.659Z,11.52
2022-08-25T18:31:13.844Z,11.43
2022-08-25T18:33:56.945Z,10.38
2022-08-25T18:36:40.474Z,11.13
2022-08-25T18:39:38.909Z,12.20
2022-08-25T18:42:21.914Z,11.20
2022-08-25T18:45:08.617Z,10.82
2022-08-25T18:47:57.514Z,14.05
2022-08-25T18:50:43.145Z,15.27
2022-08-25T18:53:36.907Z,20.13
2022-08-25T18:56:33.208Z,15.38
2022-08-25T18:59:16.541Z,16.02
2022-08-25T19:01:59.818Z,13.68
2022-08-25T19:04:46.255Z,12.30
2022-08-25T19:07:29.373Z,11.52
2022-08-25T19:10:12.666Z,12.88
2022-08-25T19:12:58.051Z,11.55
2022-08-25T19:15:46.897Z,14.13
2022-08-25T19:21:13.469Z,11.55
2022-08-25T19:23:56.577Z,13.90
2022-08-25T19:26:40.984Z,11.98
2022-08-25T19:29:25.577Z,13.07
2022-08-25T19:32:08.948Z,18.52
2022-08-25T19:34:56.784Z,15.07
2022-08-25T19:37:39.960Z,11.40
2022-08-25T19:40:23.735Z,11.93
2022-08-25T19:43:08.694Z,10.35
2022-08-25T19:45:53.181Z,11.77
2022-08-25T19:48:36.368Z,8.85
2022-08-25T19:51:21.924Z,9.68
2022-08-25T19:54:05.799Z,10.68
2022-08-25T19:56:54.586Z,10.70
2022-08-25T19:59:43.458Z,11.20
2022-08-25T20:02:29.840Z,11.95
2022-08-25T20:05:14.300Z,11.90
2022-08-25T20:07:58.872Z,10.85
2022-08-25T20:10:42.475Z,14.23
2022-08-25T20:13:25.518Z,15.07
2022-08-25T20:16:08.732Z,11.18
2022-08-25T20:18:53.237Z,9.57
2022-08-25T20:21:38.951Z,14.75
2022-08-25T20:24:39.336Z,11.57
2022-08-25T20:27:25.958Z,12.07
2022-08-25T20:30:13.499Z,11.10
2022-08-25T20:32:58.185Z,12.68
2022-08-25T20:38:31.912Z,11.90
2022-08-25T20:41:16.249Z,15.43
2022-08-25T20:43:59.313Z,14.98
2022-08-25T20:46:43.595Z,12.32
2022-08-25T20:49:28.954Z,12.27
2022-08-25T20:52:22.213Z,13.32
2022-08-25T20:55:06.165Z,19.30
2022-08-25T21:00:33.088Z,14.38
2022-08-25T21:03:19.169Z,20.52
2022-08-25T21:06:07.087Z,19.20
2022-08-25T21:08:51.702Z,15.57
2022-08-25T21:11:35.298Z,14.30
2022-08-25T21:14:18.781Z,14.20
2022-08-25T21:17:02.369Z,20.08
2022-08-25T21:22:35.450Z,18.88
2022-08-25T21:25:20.830Z,19.35
2022-08-25T21:28:04.225Z,17.40
2022-08-25T21:30:47.565Z,19.95
2022-08-25T21:33:31.272Z,18.42
2022-08-25T21:36:15.885Z,15.93
2022-08-25T21:41:45.563Z,16.05
2022-08-25T21:44:28.901Z,14.38
2022-08-25T21:47:12.022Z,11.48
2022-08-25T21:49:55.177Z,16.83
2022-08-25T21:52:39.136Z,12.57
2022-08-25T21:55:24.299Z,13.40
2022-08-25T21:58:09.277Z,18.40
2022-08-25T22:00:52.317Z,20.33
2022-08-25T22:03:37.019Z,17.55
2022-08-25T22:09:08.774Z,15.50
2022-08-25T22:11:51.937Z,17.73
2022-08-25T22:14:39.837Z,13.05
2022-08-25T22:17:24.427Z,14.88
2022-08-25T22:20:09.132Z,11.73
2022-08-25T22:22:52.191Z,12.23
2022-08-25T22:25:35.204Z,13.77
2022-08-25T22:28:18.367Z,10.50
2022-08-25T22:31:06.767Z,12.40
2022-08-25T22:33:52.969Z,11.98
2022-08-25T22:36:38.748Z,12.82
2022-08-25T22:39:22.731Z,15.70
2022-08-25T22:42:06.662Z,16.52
2022-08-25T22:44:49.706Z,19.63
2022-08-25T22:47:35.060Z,17.13
2022-08-25T22:53:02.021Z,12.20
2022-08-25T22:55:45.088Z,14.43
2022-08-25T22:58:30.285Z,12.98
2022-08-25T23:01:16.333Z,13.48
2022-08-25T23:04:01.896Z,14.05
2022-08-25T23:06:44.952Z,13.45
2022-08-25T23:09:30.516Z,10.05
2022-08-25T23:12:13.514Z,13.48
2022-08-25T23:14:57.085Z,13.98
2022-08-25T23:17:40.218Z,11.60
2022-08-25T23:20:45.229Z,9.45
2022-08-25T23:23:29.510Z,12.90
2022-08-25T23:26:12.738Z,8.65
2022-08-25T23:28:57.473Z,12.20
2022-08-25T23:31:41.449Z,9.18
2022-08-25T23:34:25.077Z,9.47
2022-08-25T23:37:10.279Z,10.15
2022-08-25T23:39:53.372Z,10.13
2022-08-25T23:42:36.529Z,14.00
2022-08-25T23:45:20.487Z,14.10
2022-08-25T23:48:04.505Z,12.80
2022-08-25T23:50:54.247Z,11.57
2022-08-25T23:53:38.996Z,8.63
2022-08-25T23:56:22.402Z,10.68
2022-08-25T23:59:05.673Z,12.40
